sensor_id;sensor_type;location;lat;lon;timestamp;pressure;altitude;pressure_sealevel;temperature;humidity
7768;BME280;3928;42.626;23.382;2024-01-15T00:00:21;93552.13;;;3.58;50.64
7768;BME280;3928;42.626;23.382;2024-01-15T00:02:49;93547.06;;;3.50;51.34
7768;BME280;3928;42.626;23.382;2024-01-15T00:05:16;93537.72;;;3.53;50.71
7768;BME280;3928;42.626;23.382;2024-01-15T00:07:43;93546.97;;;3.76;50.21
7768;BME280;3928;42.626;23.382;2024-01-15T00:10:10;93544.44;;;3.76;49.85
7768;BME280;3928;42.626;23.382;2024-01-15T00:12:37;93551.16;;;3.89;49.92
7768;BME280;3928;42.626;23.382;2024-01-15T00:15:05;93541.88;;;3.84;49.99
7768;BME280;3928;42.626;23.382;2024-01-15T00:17:32;93546.97;;;3.82;50.57
7768;BME280;3928;42.626;23.382;2024-01-15T00:20:01;93542.66;;;3.99;49.27
7768;BME280;3928;42.626;23.382;2024-01-15T00:22:29;93540.16;;;3.95;50.00
7768;BME280;3928;42.626;23.382;2024-01-15T00:24:56;93535.94;;;3.91;49.55
7768;BME280;3928;42.626;23.382;2024-01-15T00:27:23;93552.84;;;3.90;49.32
7768;BME280;3928;42.626;23.382;2024-01-15T00:29:50;93535.09;;;3.93;49.23
7768;BME280;3928;42.626;23.382;2024-01-15T00:32:17;93547.75;;;3.96;49.54
7768;BME280;3928;42.626;23.382;2024-01-15T00:34:45;93552.84;;;3.90;49.75
7768;BME280;3928;42.626;23.382;2024-01-15T00:37:13;93550.28;;;3.99;49.50
7768;BME280;3928;42.626;23.382;2024-01-15T00:39:40;93557.09;;;3.91;49.41
7768;BME280;3928;42.626;23.382;2024-01-15T00:42:07;93551.97;;;4.03;49.63
7768;BME280;3928;42.626;23.382;2024-01-15T00:44:34;93558.75;;;4.03;49.41
7768;BME280;3928;42.626;23.382;2024-01-15T00:47:01;93543.63;;;3.71;50.16
7768;BME280;3928;42.626;23.382;2024-01-15T00:49:28;93544.44;;;3.82;49.40
7768;BME280;3928;42.626;23.382;2024-01-15T00:51:55;93538.50;;;3.77;49.87
7768;BME280;3928;42.626;23.382;2024-01-15T00:54:24;93556.34;;;3.51;51.02
7768;BME280;3928;42.626;23.382;2024-01-15T00:56:51;93550.47;;;3.26;51.88
7768;BME280;3928;42.626;23.382;2024-01-15T00:59:17;93543.69;;;3.45;51.60
7768;BME280;3928;42.626;23.382;2024-01-15T01:01:46;93545.34;;;3.50;51.14
7768;BME280;3928;42.626;23.382;2024-01-15T01:04:13;93527.69;;;3.11;51.91
7768;BME280;3928;42.626;23.382;2024-01-15T01:06:40;93542.91;;;2.74;53.17
7768;BME280;3928;42.626;23.382;2024-01-15T01:09:07;93525.16;;;2.97;53.64
7768;BME280;3928;42.626;23.382;2024-01-15T01:11:35;93542.06;;;2.74;53.95
7768;BME280;3928;42.626;23.382;2024-01-15T01:14:02;93543.75;;;2.87;53.68
7768;BME280;3928;42.626;23.382;2024-01-15T01:16:29;93542.06;;;2.89;53.59
7768;BME280;3928;42.626;23.382;2024-01-15T01:18:57;93549.66;;;2.93;53.35
7768;BME280;3928;42.626;23.382;2024-01-15T01:21:24;93549.66;;;3.00;53.32
7768;BME280;3928;42.626;23.382;2024-01-15T01:23:50;93533.56;;;3.17;52.65
7768;BME280;3928;42.626;23.382;2024-01-15T01:26:17;93542.91;;;3.20;52.34
7768;BME280;3928;42.626;23.382;2024-01-15T01:28:46;93527.66;;;3.26;51.79
7768;BME280;3928;42.626;23.382;2024-01-15T01:31:13;93530.16;;;3.40;52.17
7768;BME280;3928;42.626;23.382;2024-01-15T01:33:42;93520.84;;;3.40;52.25
7768;BME280;3928;42.626;23.382;2024-01-15T01:36:09;93524.22;;;3.48;51.60
7768;BME280;3928;42.626;23.382;2024-01-15T01:38:36;93521.69;;;3.48;52.30
7768;BME280;3928;42.626;23.382;2024-01-15T01:41:03;93519.13;;;3.58;52.15
7768;BME280;3928;42.626;23.382;2024-01-15T01:43:30;93533.50;;;3.62;51.88
7768;BME280;3928;42.626;23.382;2024-01-15T01:46:00;93525.06;;;3.60;51.18
7768;BME280;3928;42.626;23.382;2024-01-15T01:48:28;93526.72;;;3.65;51.73
7768;BME280;3928;42.626;23.382;2024-01-15T01:50:58;93531.78;;;3.65;51.38
7768;BME280;3928;42.626;23.382;2024-01-15T01:53:26;93524.22;;;3.48;51.69
7768;BME280;3928;42.626;23.382;2024-01-15T01:55:54;93441.50;;;3.03;51.86
7768;BME280;3928;42.626;23.382;2024-01-15T01:58:22;93515.81;;;3.25;52.35
7768;BME280;3928;42.626;23.382;2024-01-15T02:00:51;93515.84;;;3.11;52.66
7768;BME280;3928;42.626;23.382;2024-01-15T02:03:19;93505.72;;;3.01;53.48
7768;BME280;3928;42.626;23.382;2024-01-15T02:05:48;93511.66;;;3.00;54.02
7768;BME280;3928;42.626;23.382;2024-01-15T02:08:15;93509.09;;;3.12;53.63
7768;BME280;3928;42.626;23.382;2024-01-15T02:10:42;93509.91;;;3.17;53.27
7768;BME280;3928;42.626;23.382;2024-01-15T02:13:09;93474.47;;;3.02;53.35
7768;BME280;3928;42.626;23.382;2024-01-15T02:15:36;93499.75;;;3.28;52.71
7768;BME280;3928;42.626;23.382;2024-01-15T02:18:04;93504.84;;;3.23;52.79
7768;BME280;3928;42.626;23.382;2024-01-15T02:20:34;93490.47;;;3.25;52.49
7768;BME280;3928;42.626;23.382;2024-01-15T02:23:08;93488.81;;;3.15;52.88
7768;BME280;3928;42.626;23.382;2024-01-15T02:25:37;93493.06;;;2.90;53.61
7768;BME280;3928;42.626;23.382;2024-01-15T02:28:05;93471.91;;;3.08;53.44
7768;BME280;3928;42.626;23.382;2024-01-15T02:30:34;93475.31;;;3.01;53.17
7768;BME280;3928;42.626;23.382;2024-01-15T02:33:03;93449.97;;;3.04;53.24
7768;BME280;3928;42.626;23.382;2024-01-15T02:35:30;93416.22;;;2.86;53.28
7768;BME280;3928;42.626;23.382;2024-01-15T02:37:57;93433.91;;;3.12;52.70
7768;BME280;3928;42.626;23.382;2024-01-15T02:40:25;93441.47;;;3.23;52.26
7768;BME280;3928;42.626;23.382;2024-01-15T02:42:53;93441.47;;;3.21;52.16
7768;BME280;3928;42.626;23.382;2024-01-15T02:45:21;93422.03;;;3.23;52.11
7768;BME280;3928;42.626;23.382;2024-01-15T02:47:48;93431.31;;;3.32;52.18
7768;BME280;3928;42.626;23.382;2024-01-15T02:50:16;93430.44;;;3.38;52.04
7768;BME280;3928;42.626;23.382;2024-01-15T02:52:43;93429.59;;;3.34;52.20
7768;BME280;3928;42.626;23.382;2024-01-15T02:55:10;93435.53;;;3.19;52.28
7768;BME280;3928;42.626;23.382;2024-01-15T02:57:38;93426.28;;;3.08;52.67
7768;BME280;3928;42.626;23.382;2024-01-15T03:00:06;93427.94;;;3.22;52.43
7768;BME280;3928;42.626;23.382;2024-01-15T03:02:36;93424.53;;;3.33;52.42
7768;BME280;3928;42.626;23.382;2024-01-15T03:05:05;93397.53;;;3.18;52.36
7768;BME280;3928;42.626;23.382;2024-01-15T03:07:32;93421.09;;;3.47;51.81
7768;BME280;3928;42.626;23.382;2024-01-15T03:09:59;93420.31;;;3.29;51.74
7768;BME280;3928;42.626;23.382;2024-01-15T03:12:26;93400.94;;;3.11;52.52
7768;BME280;3928;42.626;23.382;2024-01-15T03:14:55;93433.81;;;3.38;52.62
7768;BME280;3928;42.626;23.382;2024-01-15T03:17:22;93405.13;;;3.24;52.78
7768;BME280;3928;42.626;23.382;2024-01-15T03:19:49;93425.28;;;3.56;52.36
7768;BME280;3928;42.626;23.382;2024-01-15T03:22:16;93426.16;;;3.50;52.47
7768;BME280;3928;42.626;23.382;2024-01-15T03:24:43;93411.03;;;3.26;52.86
7768;BME280;3928;42.626;23.382;2024-01-15T03:27:10;93421.06;;;3.53;52.32
7768;BME280;3928;42.626;23.382;2024-01-15T03:29:37;93411.69;;;3.65;51.89
7768;BME280;3928;42.626;23.382;2024-01-15T03:32:05;93398.19;;;3.61;52.23
7768;BME280;3928;42.626;23.382;2024-01-15T03:34:32;93405.81;;;3.55;52.12
7768;BME280;3928;42.626;23.382;2024-01-15T03:36:59;93400.69;;;3.66;52.18
7768;BME280;3928;42.626;23.382;2024-01-15T03:39:26;93404.97;;;3.61;52.34
7768;BME280;3928;42.626;23.382;2024-01-15T03:41:53;93395.63;;;3.66;52.33
7768;BME280;3928;42.626;23.382;2024-01-15T03:44:20;93407.66;;;3.19;53.77
7768;BME280;3928;42.626;23.382;2024-01-15T03:46:47;93434.81;;;2.79;55.03
7768;BME280;3928;42.626;23.382;2024-01-15T03:49:15;93341.13;;;2.64;55.34
7768;BME280;3928;42.626;23.382;2024-01-15T03:51:42;93431.44;;;2.16;57.53
7768;BME280;3928;42.626;23.382;2024-01-15T03:54:09;93411.22;;;2.13;58.19
7768;BME280;3928;42.626;23.382;2024-01-15T03:56:37;93400.22;;;2.20;58.12
7768;BME280;3928;42.626;23.382;2024-01-15T03:59:04;93415.34;;;1.74;60.41
7768;BME280;3928;42.626;23.382;2024-01-15T04:01:31;93410.34;;;2.31;58.87
7768;BME280;3928;42.626;23.382;2024-01-15T04:03:58;93406.97;;;2.24;58.59
7768;BME280;3928;42.626;23.382;2024-01-15T04:06:27;93400.19;;;2.60;58.00
7768;BME280;3928;42.626;23.382;2024-01-15T04:08:54;93399.34;;;2.59;57.59
7768;BME280;3928;42.626;23.382;2024-01-15T04:11:20;93388.38;;;2.77;56.96
7768;BME280;3928;42.626;23.382;2024-01-15T04:13:48;93389.25;;;2.62;57.32
7768;BME280;3928;42.626;23.382;2024-01-15T04:16:15;93333.56;;;2.33;57.91
7768;BME280;3928;42.626;23.382;2024-01-15T04:18:41;93384.94;;;2.93;57.43
7768;BME280;3928;42.626;23.382;2024-01-15T04:21:08;93391.69;;;2.93;56.66
7768;BME280;3928;42.626;23.382;2024-01-15T04:23:37;93384.03;;;3.07;56.71
7768;BME280;3928;42.626;23.382;2024-01-15T04:26:05;93382.34;;;3.21;56.26
7768;BME280;3928;42.626;23.382;2024-01-15T04:28:32;93391.59;;;3.33;55.73
7768;BME280;3928;42.626;23.382;2024-01-15T04:30:59;93402.50;;;3.42;55.27
7768;BME280;3928;42.626;23.382;2024-01-15T04:33:26;93394.91;;;3.47;55.31
7768;BME280;3928;42.626;23.382;2024-01-15T04:35:53;93395.75;;;3.41;54.99
7768;BME280;3928;42.626;23.382;2024-01-15T04:38:20;93399.97;;;3.48;54.79
7768;BME280;3928;42.626;23.382;2024-01-15T04:40:48;93401.63;;;3.56;54.54
7768;BME280;3928;42.626;23.382;2024-01-15T04:43:15;93396.59;;;3.45;53.82
7768;BME280;3928;42.626;23.382;2024-01-15T04:45:42;93388.97;;;3.49;53.98
7768;BME280;3928;42.626;23.382;2024-01-15T04:48:09;93390.66;;;3.47;54.37
7768;BME280;3928;42.626;23.382;2024-01-15T04:50:36;93376.41;;;3.20;54.91
7768;BME280;3928;42.626;23.382;2024-01-15T04:53:03;93360.38;;;3.08;54.94
7768;BME280;3928;42.626;23.382;2024-01-15T04:55:30;93375.59;;;3.11;54.83
7768;BME280;3928;42.626;23.382;2024-01-15T04:57:59;93382.41;;;2.92;56.51
7768;BME280;3928;42.626;23.382;2024-01-15T05:00:26;93375.69;;;2.80;56.13
7768;BME280;3928;42.626;23.382;2024-01-15T05:02:53;93367.22;;;2.87;56.08
7768;BME280;3928;42.626;23.382;2024-01-15T05:05:19;93353.69;;;2.94;56.12
7768;BME280;3928;42.626;23.382;2024-01-15T05:07:46;93360.50;;;2.71;56.58
7768;BME280;3928;42.626;23.382;2024-01-15T05:10:13;93340.16;;;2.96;56.33
7768;BME280;3928;42.626;23.382;2024-01-15T05:12:40;93363.81;;;3.01;57.05
7768;BME280;3928;42.626;23.382;2024-01-15T05:15:09;93355.41;;;2.82;56.32
7768;BME280;3928;42.626;23.382;2024-01-15T05:17:36;93330.16;;;2.47;57.46
7768;BME280;3928;42.626;23.382;2024-01-15T05:20:03;93367.25;;;1.47;61.51
7768;BME280;3928;42.626;23.382;2024-01-15T05:22:30;93302.41;;;1.83;61.02
7768;BME280;3928;42.626;23.382;2024-01-15T05:24:57;93348.78;;;2.18;59.39
7768;BME280;3928;42.626;23.382;2024-01-15T05:27:24;93355.50;;;1.98;59.79
7768;BME280;3928;42.626;23.382;2024-01-15T05:29:52;93331.06;;;2.27;59.21
7768;BME280;3928;42.626;23.382;2024-01-15T05:32:20;93362.25;;;2.19;62.19
7768;BME280;3928;42.626;23.382;2024-01-15T05:34:47;93338.63;;;2.40;66.72
7768;BME280;3928;42.626;23.382;2024-01-15T05:37:14;93317.50;;;2.47;64.17
7768;BME280;3928;42.626;23.382;2024-01-15T05:39:41;93363.09;;;2.51;62.00
7768;BME280;3928;42.626;23.382;2024-01-15T05:42:08;93331.69;;;3.09;66.71
7768;BME280;3928;42.626;23.382;2024-01-15T05:44:35;93328.09;;;3.49;58.99
7768;BME280;3928;42.626;23.382;2024-01-15T05:47:02;93342.41;;;3.61;56.49
7768;BME280;3928;42.626;23.382;2024-01-15T05:49:30;93332.91;;;3.89;59.65
7768;BME280;3928;42.626;23.382;2024-01-15T05:51:57;93327.63;;;4.17;56.30
7768;BME280;3928;42.626;23.382;2024-01-15T05:54:24;93324.88;;;4.41;58.94
7768;BME280;3928;42.626;23.382;2024-01-15T05:56:51;93333.41;;;4.32;55.83
7768;BME280;3928;42.626;23.382;2024-01-15T05:59:18;93331.75;;;4.25;53.26
7768;BME280;3928;42.626;23.382;2024-01-15T06:01:45;93337.81;;;4.12;52.54
7768;BME280;3928;42.626;23.382;2024-01-15T06:04:12;93348.16;;;3.86;53.34
7768;BME280;3928;42.626;23.382;2024-01-15T06:06:40;93333.19;;;3.48;54.27
7768;BME280;3928;42.626;23.382;2024-01-15T06:09:07;93351.75;;;3.51;54.32
7768;BME280;3928;42.626;23.382;2024-01-15T06:11:34;93338.22;;;3.52;54.90
7768;BME280;3928;42.626;23.382;2024-01-15T06:14:01;93351.69;;;3.61;55.45
7768;BME280;3928;42.626;23.382;2024-01-15T06:16:28;93329.69;;;3.69;54.82
7768;BME280;3928;42.626;23.382;2024-01-15T06:18:55;93343.16;;;3.74;55.01
7768;BME280;3928;42.626;23.382;2024-01-15T06:21:22;93342.28;;;3.78;54.12
7768;BME280;3928;42.626;23.382;2024-01-15T06:23:51;93348.13;;;3.92;54.24
7768;BME280;3928;42.626;23.382;2024-01-15T06:26:18;93342.97;;;4.04;53.48
7768;BME280;3928;42.626;23.382;2024-01-15T06:28:45;93335.25;;;4.12;53.90
7768;BME280;3928;42.626;23.382;2024-01-15T06:31:12;93330.28;;;3.98;53.72
7768;BME280;3928;42.626;23.382;2024-01-15T06:33:39;93332.00;;;3.96;53.78
7768;BME280;3928;42.626;23.382;2024-01-15T06:36:06;93318.41;;;4.02;53.54
7768;BME280;3928;42.626;23.382;2024-01-15T06:38:35;93344.66;;;4.05;53.31
7768;BME280;3928;42.626;23.382;2024-01-15T06:41:04;93327.69;;;4.07;53.94
7768;BME280;3928;42.626;23.382;2024-01-15T06:43:30;93322.75;;;3.91;53.35
7768;BME280;3928;42.626;23.382;2024-01-15T06:45:57;93331.13;;;4.03;53.70
7768;BME280;3928;42.626;23.382;2024-01-15T06:48:24;93305.91;;;3.82;54.14
7768;BME280;3928;42.626;23.382;2024-01-15T06:50:51;93339.59;;;4.04;53.27
7768;BME280;3928;42.626;23.382;2024-01-15T06:53:19;93350.72;;;3.85;54.45
7768;BME280;3928;42.626;23.382;2024-01-15T06:55:46;93312.78;;;3.68;54.64
7768;BME280;3928;42.626;23.382;2024-01-15T06:58:16;93340.47;;;3.95;53.69
7768;BME280;3928;42.626;23.382;2024-01-15T07:00:43;93345.47;;;4.07;53.56
7768;BME280;3928;42.626;23.382;2024-01-15T07:03:10;93353.75;;;4.31;57.79
7768;BME280;3928;42.626;23.382;2024-01-15T07:05:37;93351.81;;;4.56;53.29
7768;BME280;3928;42.626;23.382;2024-01-15T07:08:04;93356.00;;;4.61;52.12
7768;BME280;3928;42.626;23.382;2024-01-15T07:10:31;93341.47;;;4.76;52.20
7768;BME280;3928;42.626;23.382;2024-01-15T07:12:58;93347.44;;;4.72;52.64
7768;BME280;3928;42.626;23.382;2024-01-15T07:15:27;93343.19;;;4.72;52.18
7768;BME280;3928;42.626;23.382;2024-01-15T07:17:54;93366.41;;;4.34;53.54
7768;BME280;3928;42.626;23.382;2024-01-15T07:20:20;93351.97;;;4.40;53.84
7768;BME280;3928;42.626;23.382;2024-01-15T07:22:47;93349.34;;;4.48;53.56
7768;BME280;3928;42.626;23.382;2024-01-15T07:25:15;93362.91;;;4.50;53.31
7768;BME280;3928;42.626;23.382;2024-01-15T07:27:43;93319.34;;;3.90;53.49
7768;BME280;3928;42.626;23.382;2024-01-15T07:30:11;93342.72;;;4.32;53.27
7768;BME280;3928;42.626;23.382;2024-01-15T07:32:39;93326.69;;;4.28;53.73
7768;BME280;3928;42.626;23.382;2024-01-15T07:35:07;93341.03;;;4.32;53.35
7768;BME280;3928;42.626;23.382;2024-01-15T07:37:36;93329.97;;;4.36;54.37
7768;BME280;3928;42.626;23.382;2024-01-15T07:40:04;93335.91;;;4.37;54.42
7768;BME280;3928;42.626;23.382;2024-01-15T07:42:32;93346.78;;;4.50;53.71
7768;BME280;3928;42.626;23.382;2024-01-15T07:44:59;93356.03;;;4.58;53.60
7768;BME280;3928;42.626;23.382;2024-01-15T07:47:26;93370.66;;;4.32;53.98
7768;BME280;3928;42.626;23.382;2024-01-15T07:49:56;93351.34;;;4.16;54.90
7768;BME280;3928;42.626;23.382;2024-01-15T07:52:23;93369.97;;;4.11;55.48
7768;BME280;3928;42.626;23.382;2024-01-15T07:54:49;93360.66;;;4.12;55.77
7768;BME280;3928;42.626;23.382;2024-01-15T07:57:16;93353.06;;;4.09;56.16
7768;BME280;3928;42.626;23.382;2024-01-15T07:59:43;93341.50;;;3.70;56.10
7768;BME280;3928;42.626;23.382;2024-01-15T08:02:10;93327.88;;;3.83;55.08
7768;BME280;3928;42.626;23.382;2024-01-15T08:04:38;93358.72;;;3.11;57.79
7768;BME280;3928;42.626;23.382;2024-01-15T08:07:06;93317.84;;;3.68;57.01
7768;BME280;3928;42.626;23.382;2024-01-15T08:09:33;93334.00;;;3.51;56.44
7768;BME280;3928;42.626;23.382;2024-01-15T08:12:00;93324.78;;;3.38;57.10
7768;BME280;3928;42.626;23.382;2024-01-15T08:14:27;93329.50;;;3.90;56.44
7768;BME280;3928;42.626;23.382;2024-01-15T08:16:54;93334.50;;;4.02;56.32
7768;BME280;3928;42.626;23.382;2024-01-15T08:19:21;93345.28;;;4.32;56.11
7768;BME280;3928;42.626;23.382;2024-01-15T08:21:48;93355.59;;;4.10;56.15
7768;BME280;3928;42.626;23.382;2024-01-15T08:24:16;93325.09;;;4.15;56.59
7768;BME280;3928;42.626;23.382;2024-01-15T08:26:43;93331.09;;;4.05;54.93
7768;BME280;3928;42.626;23.382;2024-01-15T08:29:10;93330.78;;;4.43;53.86
7768;BME280;3928;42.626;23.382;2024-01-15T08:31:37;93343.41;;;4.49;53.63
7768;BME280;3928;42.626;23.382;2024-01-15T08:34:04;93343.97;;;4.80;53.69
7768;BME280;3928;42.626;23.382;2024-01-15T08:36:31;93329.50;;;4.84;52.58
7768;BME280;3928;42.626;23.382;2024-01-15T08:39:00;93320.97;;;4.91;52.56
7768;BME280;3928;42.626;23.382;2024-01-15T08:41:31;93241.78;;;4.52;51.66
7768;BME280;3928;42.626;23.382;2024-01-15T08:44:00;93305.38;;;5.20;51.43
7768;BME280;3928;42.626;23.382;2024-01-15T08:46:28;93315.72;;;5.06;49.85
7768;BME280;3928;42.626;23.382;2024-01-15T08:48:55;93288.34;;;5.26;50.13
7768;BME280;3928;42.626;23.382;2024-01-15T08:51:22;93314.00;;;5.10;49.59
7768;BME280;3928;42.626;23.382;2024-01-15T08:53:49;93289.16;;;5.28;50.59
7768;BME280;3928;42.626;23.382;2024-01-15T08:56:16;93289.69;;;4.87;51.57
7768;BME280;3928;42.626;23.382;2024-01-15T08:58:44;93269.84;;;5.15;50.36
7768;BME280;3928;42.626;23.382;2024-01-15T09:01:11;93314.38;;;5.44;49.19
7768;BME280;3928;42.626;23.382;2024-01-15T09:03:39;93297.19;;;5.61;49.09
7768;BME280;3928;42.626;23.382;2024-01-15T09:06:07;93277.41;;;5.78;49.46
7768;BME280;3928;42.626;23.382;2024-01-15T09:08:35;93294.09;;;5.99;47.77
7768;BME280;3928;42.626;23.382;2024-01-15T09:11:02;93268.69;;;5.98;48.10
7768;BME280;3928;42.626;23.382;2024-01-15T09:13:29;93262.38;;;6.20;47.60
7768;BME280;3928;42.626;23.382;2024-01-15T09:15:59;93233.63;;;6.12;47.24
7768;BME280;3928;42.626;23.382;2024-01-15T09:18:27;93245.28;;;6.25;45.48
7768;BME280;3928;42.626;23.382;2024-01-15T09:20:55;93164.16;;;6.05;46.22
7768;BME280;3928;42.626;23.382;2024-01-15T09:23:22;93212.19;;;6.70;48.34
7768;BME280;3928;42.626;23.382;2024-01-15T09:25:49;93205.72;;;6.54;50.73
7768;BME280;3928;42.626;23.382;2024-01-15T09:28:18;93222.63;;;6.58;51.57
7768;BME280;3928;42.626;23.382;2024-01-15T09:30:45;93210.59;;;6.63;50.44
7768;BME280;3928;42.626;23.382;2024-01-15T09:33:14;93200.13;;;6.33;51.49
7768;BME280;3928;42.626;23.382;2024-01-15T09:35:41;93224.53;;;6.47;51.31
7768;BME280;3928;42.626;23.382;2024-01-15T09:38:08;93218.34;;;6.58;50.16
7768;BME280;3928;42.626;23.382;2024-01-15T09:40:38;93228.44;;;6.64;49.88
7768;BME280;3928;42.626;23.382;2024-01-15T09:43:05;93205.34;;;6.72;49.16
7768;BME280;3928;42.626;23.382;2024-01-15T09:45:32;93211.16;;;6.79;48.73
7768;BME280;3928;42.626;23.382;2024-01-15T09:47:59;93201.81;;;6.79;48.86
7768;BME280;3928;42.626;23.382;2024-01-15T09:50:28;93193.41;;;6.76;48.85
7768;BME280;3928;42.626;23.382;2024-01-15T09:52:55;93168.16;;;6.62;49.07
7768;BME280;3928;42.626;23.382;2024-01-15T09:55:23;93149.81;;;6.44;48.81
7768;BME280;3928;42.626;23.382;2024-01-15T09:57:50;93153.06;;;6.53;49.32
7768;BME280;3928;42.626;23.382;2024-01-15T10:00:18;93171.63;;;6.58;49.34
7768;BME280;3928;42.626;23.382;2024-01-15T10:02:44;93144.28;;;6.23;49.43
7768;BME280;3928;42.626;23.382;2024-01-15T10:05:11;93174.81;;;6.24;49.78
7768;BME280;3928;42.626;23.382;2024-01-15T10:07:40;93158.63;;;6.28;49.90
7768;BME280;3928;42.626;23.382;2024-01-15T10:10:07;93168.75;;;5.83;50.78
7768;BME280;3928;42.626;23.382;2024-01-15T10:12:34;93122.25;;;5.72;50.56
7768;BME280;3928;42.626;23.382;2024-01-15T10:15:03;93152.25;;;6.06;50.46
7768;BME280;3928;42.626;23.382;2024-01-15T10:17:30;93148.13;;;5.99;49.91
7768;BME280;3928;42.626;23.382;2024-01-15T10:19:57;93087.66;;;5.62;50.08
7768;BME280;3928;42.626;23.382;2024-01-15T10:22:25;93141.13;;;6.10;50.13
7768;BME280;3928;42.626;23.382;2024-01-15T10:24:54;93122.59;;;6.02;50.24
7768;BME280;3928;42.626;23.382;2024-01-15T10:27:20;93086.28;;;5.94;50.13
7768;BME280;3928;42.626;23.382;2024-01-15T10:29:47;93123.78;;;6.30;50.20
7768;BME280;3928;42.626;23.382;2024-01-15T10:32:14;93122.75;;;6.37;50.01
7768;BME280;3928;42.626;23.382;2024-01-15T10:34:41;93102.34;;;6.40;49.86
7768;BME280;3928;42.626;23.382;2024-01-15T10:37:09;93109.00;;;6.46;49.53
7768;BME280;3928;42.626;23.382;2024-01-15T10:39:36;93092.66;;;6.56;49.41
7768;BME280;3928;42.626;23.382;2024-01-15T10:42:06;93102.09;;;6.53;48.47
7768;BME280;3928;42.626;23.382;2024-01-15T10:44:34;93110.47;;;6.58;48.05
7768;BME280;3928;42.626;23.382;2024-01-15T10:47:01;93119.72;;;6.63;48.21
7768;BME280;3928;42.626;23.382;2024-01-15T10:49:28;93112.75;;;6.70;48.44
7768;BME280;3928;42.626;23.382;2024-01-15T10:51:56;93100.78;;;6.75;48.45
7768;BME280;3928;42.626;23.382;2024-01-15T10:54:24;93111.88;;;6.71;47.39
7768;BME280;3928;42.626;23.382;2024-01-15T10:56:51;93095.41;;;6.86;48.00
7768;BME280;3928;42.626;23.382;2024-01-15T10:59:21;93090.56;;;6.75;47.81
7768;BME280;3928;42.626;23.382;2024-01-15T11:01:49;93103.50;;;6.66;46.94
7768;BME280;3928;42.626;23.382;2024-01-15T11:04:19;93091.00;;;6.12;48.22
7768;BME280;3928;42.626;23.382;2024-01-15T11:06:50;93085.75;;;6.21;47.08
7768;BME280;3928;42.626;23.382;2024-01-15T11:09:17;93088.81;;;5.94;47.67
7768;BME280;3928;42.626;23.382;2024-01-15T11:11:45;93059.44;;;6.21;47.79
7768;BME280;3928;42.626;23.382;2024-01-15T11:14:38;93000.66;;;5.86;47.84
7768;BME280;3928;42.626;23.382;2024-01-15T11:17:06;93051.13;;;6.53;47.36
7768;BME280;3928;42.626;23.382;2024-01-15T11:19:36;93061.59;;;6.79;47.44
7768;BME280;3928;42.626;23.382;2024-01-15T11:22:07;93055.03;;;7.04;46.59
7768;BME280;3928;42.626;23.382;2024-01-15T11:24:36;93043.28;;;6.97;45.89
7768;BME280;3928;42.626;23.382;2024-01-15T11:27:04;93046.47;;;7.43;45.77
7768;BME280;3928;42.626;23.382;2024-01-15T11:29:32;93047.81;;;7.22;45.06
7768;BME280;3928;42.626;23.382;2024-01-15T11:32:04;93056.50;;;7.83;45.42
7768;BME280;3928;42.626;23.382;2024-01-15T11:34:49;93061.88;;;8.36;44.28
7768;BME280;3928;42.626;23.382;2024-01-15T11:37:16;93054.47;;;8.86;43.20
7768;BME280;3928;42.626;23.382;2024-01-15T11:39:43;93038.22;;;9.15;42.15
7768;BME280;3928;42.626;23.382;2024-01-15T11:42:11;93045.63;;;9.22;40.34
7768;BME280;3928;42.626;23.382;2024-01-15T11:44:39;93033.22;;;9.38;42.11
7768;BME280;3928;42.626;23.382;2024-01-15T11:47:09;93030.34;;;9.47;40.54
7768;BME280;3928;42.626;23.382;2024-01-15T11:49:59;93041.63;;;9.42;40.10
7768;BME280;3928;42.626;23.382;2024-01-15T11:52:32;93019.88;;;9.28;41.49
7768;BME280;3928;42.626;23.382;2024-01-15T11:55:11;92989.13;;;8.75;41.26
7768;BME280;3928;42.626;23.382;2024-01-15T11:57:45;93004.19;;;9.13;42.70
7768;BME280;3928;42.626;23.382;2024-01-15T12:00:13;93005.78;;;9.15;42.03
7768;BME280;3928;42.626;23.382;2024-01-15T12:02:43;93012.38;;;8.96;42.42
7768;BME280;3928;42.626;23.382;2024-01-15T12:05:11;93010.91;;;9.66;42.52
7768;BME280;3928;42.626;23.382;2024-01-15T12:07:39;93024.00;;;9.57;41.79
7768;BME280;3928;42.626;23.382;2024-01-15T12:10:09;93023.63;;;10.18;42.16
7768;BME280;3928;42.626;23.382;2024-01-15T12:12:54;93006.78;;;10.81;39.77
7768;BME280;3928;42.626;23.382;2024-01-15T12:15:24;93000.50;;;11.32;38.96
7768;BME280;3928;42.626;23.382;2024-01-15T12:17:52;92983.00;;;11.82;38.50
7768;BME280;3928;42.626;23.382;2024-01-15T12:20:21;92982.34;;;12.37;36.95
7768;BME280;3928;42.626;23.382;2024-01-15T12:22:48;92973.88;;;12.91;36.71
7768;BME280;3928;42.626;23.382;2024-01-15T12:25:16;92965.69;;;13.36;35.76
7768;BME280;3928;42.626;23.382;2024-01-15T12:27:43;92989.53;;;13.76;34.58
7768;BME280;3928;42.626;23.382;2024-01-15T12:30:11;92924.59;;;13.68;34.58
7768;BME280;3928;42.626;23.382;2024-01-15T12:32:39;92974.59;;;14.16;33.58
7768;BME280;3928;42.626;23.382;2024-01-15T12:35:09;92993.50;;;14.32;33.30
7768;BME280;3928;42.626;23.382;2024-01-15T12:37:36;93002.75;;;14.03;32.84
7768;BME280;3928;42.626;23.382;2024-01-15T12:40:04;92974.63;;;13.81;33.26
7768;BME280;3928;42.626;23.382;2024-01-15T12:42:32;92984.50;;;13.73;33.56
7768;BME280;3928;42.626;23.382;2024-01-15T12:45:00;92984.53;;;13.01;33.79
7768;BME280;3928;42.626;23.382;2024-01-15T12:47:27;92975.69;;;12.70;34.44
7768;BME280;3928;42.626;23.382;2024-01-15T12:49:55;92964.22;;;12.58;35.58
7768;BME280;3928;42.626;23.382;2024-01-15T12:52:23;92967.53;;;12.42;35.22
7768;BME280;3928;42.626;23.382;2024-01-15T12:54:51;92936.59;;;12.24;35.37
7768;BME280;3928;42.626;23.382;2024-01-15T12:57:18;92973.94;;;11.94;35.86
7768;BME280;3928;42.626;23.382;2024-01-15T12:59:45;92985.97;;;10.67;38.96
7768;BME280;3928;42.626;23.382;2024-01-15T13:02:13;92931.06;;;10.71;38.32
7768;BME280;3928;42.626;23.382;2024-01-15T13:04:40;92956.38;;;11.02;39.25
7768;BME280;3928;42.626;23.382;2024-01-15T13:07:07;92933.25;;;11.02;38.65
7768;BME280;3928;42.626;23.382;2024-01-15T13:09:36;92954.91;;;11.17;38.50
7768;BME280;3928;42.626;23.382;2024-01-15T13:12:03;92951.88;;;10.85;38.84
7768;BME280;3928;42.626;23.382;2024-01-15T13:14:31;92931.81;;;10.95;38.99
7768;BME280;3928;42.626;23.382;2024-01-15T13:16:58;92934.06;;;10.82;38.87
7768;BME280;3928;42.626;23.382;2024-01-15T13:19:25;92940.72;;;10.64;39.85
7768;BME280;3928;42.626;23.382;2024-01-15T13:21:52;92929.28;;;10.73;39.66